METAR Data
IDs: Format: Raw Decoded Include TAF

Data at: 0104 UTC 20 Jan 2022

EGPN 192050Z 30009KT 9999 SCT048 06/01 Q1029